Time;durP1;ratioP1;P1;durP2;ratioP2;P2;SDS_P1;SDS_P2;PMS_P1;PMS_P2;Temp;Humidity;BMP_temperature;BMP_pressure;BME280_temperature;BME280_humidity;BME280_pressure;Samples;Min_cycle;Max_cycle;Signal;HPM_P1;HPM_P2
2022/08/15 00:00:12;;;;;;;4.03;0.88;;;23.20;76.80;;;;;;5080723;28;20055;-81
2022/08/15 00:02:42;;;;;;;2.60;0.70;;;23.20;76.90;;;;;;5091372;28;20035;-81
2022/08/15 00:05:13;;;;;;;1.42;0.65;;;23.20;77.30;;;;;;5072064;28;20104;-81
2022/08/15 00:07:39;;;;;;;1.65;0.60;;;23.20;77.00;;;;;;5095461;28;20028;-82
2022/08/15 00:10:07;;;;;;;2.92;0.80;;;23.20;77.60;;;;;;5090189;28;20034;-81
2022/08/15 00:12:34;;;;;;;2.05;1.02;;;23.20;77.50;;;;;;5079015;28;20066;-81
2022/08/15 00:15:02;;;;;;;1.98;0.73;;;23.10;78.00;;;;;;5076714;28;20067;-81
2022/08/15 00:17:29;;;;;;;1.55;0.77;;;23.10;77.60;;;;;;5099023;28;20038;-82
2022/08/15 00:19:54;;;;;;;2.10;0.80;;;23.10;77.70;;;;;;5091978;28;20039;-81
2022/08/15 00:22:20;;;;;;;1.63;0.80;;;23.10;77.40;;;;;;5087109;28;20495;-81
2022/08/15 00:24:48;;;;;;;1.80;0.70;;;23.10;77.90;;;;;;5092143;28;20055;-81
2022/08/15 00:27:14;;;;;;;3.33;1.08;;;23.00;78.50;;;;;;5075116;28;20535;-81
2022/08/15 00:29:41;;;;;;;2.47;0.80;;;23.00;79.00;;;;;;5077851;28;20023;-81
2022/08/15 00:32:18;;;;;;;2.38;0.95;;;22.80;79.10;;;;;;5093142;28;20477;-81
2022/08/15 00:34:43;;;;;;;1.92;1.00;;;22.70;80.30;;;;;;5085811;28;20539;-80
2022/08/15 00:37:09;;;;;;;2.20;1.02;;;22.60;80.70;;;;;;5093979;28;20024;-81
2022/08/15 00:39:36;;;;;;;2.95;1.25;;;22.50;81.50;;;;;;5076399;28;20731;-81
2022/08/15 00:42:04;;;;;;;2.10;1.00;;;22.30;82.10;;;;;;5072120;28;20020;-81
2022/08/15 00:44:43;;;;;;;2.75;0.98;;;22.10;82.90;;;;;;5074023;28;20028;-81
2022/08/15 00:47:13;;;;;;;2.22;1.08;;;22.10;83.20;;;;;;5075163;28;20028;-80
2022/08/15 00:49:39;;;;;;;2.10;1.08;;;22.10;83.10;;;;;;5077841;28;20016;-82
2022/08/15 00:52:21;;;;;;;2.38;0.98;;;22.00;82.90;;;;;;5076286;28;20016;-82
2022/08/15 00:54:55;;;;;;;3.20;1.40;;;22.10;83.10;;;;;;5065307;28;20151;-81
2022/08/15 00:57:24;;;;;;;1.77;0.80;;;22.10;82.90;;;;;;5072329;28;20048;-82
2022/08/15 00:59:53;;;;;;;3.95;0.93;;;22.10;82.50;;;;;;5075882;28;20482;-81
2022/08/15 01:02:23;;;;;;;2.65;1.20;;;22.20;82.80;;;;;;5075537;28;20026;-81
2022/08/15 01:04:49;;;;;;;2.58;1.27;;;22.20;82.90;;;;;;5089788;28;20510;-83
2022/08/15 01:07:15;;;;;;;2.38;1.08;;;22.30;82.40;;;;;;5095188;28;20036;-82
2022/08/15 01:09:41;;;;;;;2.00;1.02;;;22.30;82.30;;;;;;5094366;28;20646;-81
2022/08/15 01:12:13;;;;;;;2.42;0.85;;;22.30;82.30;;;;;;5078577;28;20035;-82
2022/08/15 01:14:41;;;;;;;2.20;1.00;;;22.30;82.60;;;;;;5070059;28;20033;-82
2022/08/15 01:17:08;;;;;;;3.15;1.00;;;22.30;82.60;;;;;;5076107;28;20032;-81
2022/08/15 01:19:53;;;;;;;1.95;1.05;;;22.30;83.30;;;;;;5069880;28;20448;-81
2022/08/15 01:22:41;;;;;;;3.03;1.20;;;22.20;84.10;;;;;;5091451;28;20028;-81
2022/08/15 01:25:16;;;;;;;1.23;0.80;;;22.10;84.80;;;;;;5072937;28;20046;-82
2022/08/15 01:28:25;;;;;;;2.33;1.20;;;22.00;85.20;;;;;;5094624;28;20412;-81
2022/08/15 01:30:57;;;;;;;2.40;0.98;;;21.90;85.50;;;;;;5065172;28;20032;-82
2022/08/15 01:33:24;;;;;;;1.58;0.80;;;21.90;86.00;;;;;;5093551;28;20099;-81
2022/08/15 01:35:51;;;;;;;2.55;1.13;;;21.80;85.70;;;;;;5091737;28;20037;-81
2022/08/15 01:38:31;;;;;;;2.30;1.08;;;21.90;85.80;;;;;;5091996;28;20031;-82
2022/08/15 01:41:14;;;;;;;2.33;1.05;;;21.80;86.20;;;;;;5092630;28;20096;-81
2022/08/15 01:43:57;;;;;;;4.28;0.98;;;21.80;87.60;;;;;;5092823;28;20420;-81
2022/08/15 01:46:26;;;;;;;2.60;1.27;;;21.60;88.40;;;;;;5093225;28;20036;-81
2022/08/15 01:49:20;;;;;;;3.00;1.10;;;21.60;88.70;;;;;;5077779;28;20055;-81
2022/08/15 01:51:46;;;;;;;2.10;0.95;;;21.60;89.80;;;;;;5078186;28;20089;-82
2022/08/15 01:54:13;;;;;;;2.17;0.98;;;21.50;90.20;;;;;;5093427;28;20062;-80
2022/08/15 01:56:45;;;;;;;3.40;1.38;;;21.50;90.50;;;;;;5090846;28;20046;-82
2022/08/15 01:59:14;;;;;;;2.90;1.00;;;21.40;90.70;;;;;;5072090;28;20028;-82
2022/08/15 02:01:46;;;;;;;2.30;0.90;;;21.50;90.80;;;;;;5094199;28;20080;-81
2022/08/15 02:04:13;;;;;;;2.28;0.90;;;21.40;90.80;;;;;;5077903;28;20024;-82
2022/08/15 02:06:41;;;;;;;2.03;1.13;;;21.40;90.70;;;;;;5093243;28;20035;-81
2022/08/15 02:09:09;;;;;;;2.92;0.93;;;21.40;90.80;;;;;;5078590;28;20454;-81
2022/08/15 02:11:35;;;;;;;3.00;1.20;;;21.50;90.60;;;;;;5089773;28;20020;-81
2022/08/15 02:14:01;;;;;;;2.03;0.90;;;21.40;90.60;;;;;;5073359;28;20024;-81
2022/08/15 02:16:30;;;;;;;1.30;0.70;;;21.50;90.50;;;;;;5093590;28;20116;-81
2022/08/15 02:18:57;;;;;;;1.83;0.90;;;21.40;90.70;;;;;;5071553;28;20373;-81
2022/08/15 02:21:23;;;;;;;3.25;1.10;;;21.50;90.70;;;;;;5091254;28;20024;-82
2022/08/15 02:23:49;;;;;;;2.58;0.77;;;21.50;90.60;;;;;;5072543;28;20464;-82
2022/08/15 02:26:15;;;;;;;2.90;1.02;;;21.50;90.80;;;;;;5095296;28;20012;-81
2022/08/15 02:28:42;;;;;;;1.98;0.80;;;21.50;90.60;;;;;;5081687;28;20028;-81
2022/08/15 02:31:15;;;;;;;1.92;0.98;;;21.50;90.50;;;;;;5103382;28;20047;-81
2022/08/15 02:33:48;;;;;;;1.75;0.70;;;21.50;90.70;;;;;;5101134;28;20076;-81
2022/08/15 02:36:16;;;;;;;3.60;0.70;;;21.50;90.80;;;;;;5096350;28;20173;-81
2022/08/15 02:38:42;;;;;;;1.67;0.95;;;21.50;90.80;;;;;;5101800;23;20068;-86
2022/08/15 02:41:07;;;;;;;3.97;1.00;;;21.50;90.90;;;;;;5060935;28;20032;-85
2022/08/15 02:43:33;;;;;;;1.65;0.80;;;21.50;90.80;;;;;;5078083;28;20028;-86
2022/08/15 02:46:00;;;;;;;2.55;0.80;;;21.50;90.80;;;;;;5073722;28;20477;-86
2022/08/15 02:48:26;;;;;;;2.05;0.75;;;21.50;90.80;;;;;;5057905;28;20051;-83
2022/08/15 02:50:53;;;;;;;2.30;0.82;;;21.50;91.00;;;;;;5077849;28;20012;-84
2022/08/15 02:53:20;;;;;;;3.17;1.20;;;21.40;91.20;;;;;;5060675;28;20020;-84
2022/08/15 02:55:47;;;;;;;2.25;1.00;;;21.40;91.30;;;;;;5063364;28;20040;-84
2022/08/15 02:58:14;;;;;;;3.10;1.38;;;21.40;91.30;;;;;;5082160;28;20050;-85
2022/08/15 03:00:42;;;;;;;2.60;1.08;;;21.30;91.70;;;;;;5082512;28;20021;-84
2022/08/15 03:03:11;;;;;;;1.80;0.80;;;21.10;92.20;;;;;;5069927;28;20348;-84
2022/08/15 03:05:42;;;;;;;2.15;1.10;;;21.10;92.30;;;;;;5071785;28;20027;-85
2022/08/15 03:08:07;;;;;;;3.50;0.70;;;21.10;92.40;;;;;;5067814;28;20067;-84
2022/08/15 03:10:37;;;;;;;1.73;0.70;;;21.10;92.70;;;;;;5087084;28;20025;-84
2022/08/15 03:13:13;;;;;;;2.42;0.90;;;21.00;92.90;;;;;;5087251;28;20013;-84
2022/08/15 03:15:47;;;;;;;2.28;0.90;;;21.00;92.80;;;;;;5084178;28;20539;-84
2022/08/15 03:18:14;;;;;;;1.38;0.52;;;21.00;93.00;;;;;;5084648;28;20033;-84
2022/08/15 03:20:41;;;;;;;1.13;0.57;;;21.00;93.00;;;;;;5083847;28;20043;-83
2022/08/15 03:23:07;;;;;;;1.75;0.80;;;21.00;93.10;;;;;;5080616;28;20031;-84
2022/08/15 03:25:42;;;;;;;3.15;1.00;;;21.00;93.20;;;;;;5064689;28;20055;-84
2022/08/15 03:28:09;;;;;;;1.92;0.70;;;21.10;93.20;;;;;;5080096;28;20040;-84
2022/08/15 03:30:36;;;;;;;1.77;0.77;;;21.00;93.20;;;;;;5079815;28;20021;-84
2022/08/15 03:33:03;;;;;;;1.75;0.70;;;20.90;93.40;;;;;;5083148;28;20024;-84
2022/08/15 03:35:32;;;;;;;2.58;0.80;;;20.90;93.60;;;;;;5079920;28;20116;-84
2022/08/15 03:37:59;;;;;;;2.05;0.75;;;20.80;94.00;;;;;;5061236;28;20535;-84
2022/08/15 03:40:26;;;;;;;1.65;0.70;;;20.70;94.30;;;;;;5063781;28;20024;-84
2022/08/15 03:42:53;;;;;;;1.85;0.77;;;20.70;94.50;;;;;;5077931;28;20029;-84
2022/08/15 03:45:20;;;;;;;2.85;0.90;;;20.70;94.60;;;;;;5062592;28;20040;-84
2022/08/15 03:47:47;;;;;;;1.88;0.70;;;20.70;94.80;;;;;;5077490;28;20029;-83
2022/08/15 03:50:14;;;;;;;1.40;0.70;;;20.70;95.00;;;;;;5082397;28;20024;-83
2022/08/15 03:52:56;;;;;;;1.95;0.82;;;20.60;95.40;;;;;;5085202;28;20028;-83
2022/08/15 03:55:24;;;;;;;2.40;0.65;;;20.50;95.90;;;;;;5080039;28;20025;-84
2022/08/15 03:57:51;;;;;;;2.85;0.88;;;20.50;96.20;;;;;;5078015;28;20031;-84
2022/08/15 04:00:19;;;;;;;1.80;0.70;;;20.40;96.60;;;;;;5060213;28;20047;-84
2022/08/15 04:02:45;;;;;;;2.65;0.80;;;20.40;96.90;;;;;;5073296;28;20382;-83
2022/08/15 04:05:11;;;;;;;4.60;0.95;;;20.40;97.40;;;;;;5072852;28;20115;-85
2022/08/15 04:07:37;;;;;;;1.88;0.80;;;20.30;97.90;;;;;;5059926;28;20025;-84
2022/08/15 04:10:15;;;;;;;2.17;1.00;;;20.40;98.00;;;;;;5056968;28;20021;-84
2022/08/15 04:12:43;;;;;;;1.23;0.60;;;20.30;98.30;;;;;;5074085;28;20027;-84
2022/08/15 04:15:14;;;;;;;2.85;1.13;;;20.30;98.30;;;;;;5068747;28;20021;-84
2022/08/15 04:17:41;;;;;;;1.10;0.50;;;20.30;98.30;;;;;;5051653;28;20032;-84
2022/08/15 04:20:08;;;;;;;2.38;0.93;;;20.20;98.70;;;;;;5071861;28;20421;-84
2022/08/15 04:22:45;;;;;;;1.30;0.70;;;20.20;98.80;;;;;;5048322;28;20501;-84
2022/08/15 04:25:21;;;;;;;2.10;1.13;;;20.20;99.00;;;;;;5071048;28;20029;-84
2022/08/15 04:27:50;;;;;;;2.00;0.57;;;20.10;99.40;;;;;;5070938;28;20032;-83
2022/08/15 04:30:16;;;;;;;1.42;0.60;;;20.10;99.70;;;;;;5056282;28;20086;-84
2022/08/15 04:32:42;;;;;;;1.55;0.73;;;20.20;99.80;;;;;;5057438;28;20020;-84
2022/08/15 04:35:10;;;;;;;1.80;0.70;;;20.20;99.90;;;;;;5058647;28;20032;-84
2022/08/15 04:37:42;;;;;;;1.55;0.50;;;20.20;99.90;;;;;;5074599;28;20489;-83
2022/08/15 04:40:10;;;;;;;2.95;1.13;;;20.20;99.90;;;;;;5054366;28;20405;-84
2022/08/15 04:42:50;;;;;;;2.03;0.70;;;20.20;99.90;;;;;;5073976;28;20047;-84
2022/08/15 04:45:16;;;;;;;2.10;0.88;;;20.10;99.90;;;;;;5037035;28;20032;-84
2022/08/15 04:47:42;;;;;;;2.55;1.00;;;20.10;99.90;;;;;;5054189;28;20024;-84
2022/08/15 04:50:09;;;;;;;2.70;1.00;;;20.00;99.90;;;;;;5071526;28;20108;-85
2022/08/15 04:52:44;;;;;;;3.15;0.77;;;20.10;99.90;;;;;;5053196;28;20557;-84
2022/08/15 04:55:11;;;;;;;2.97;0.70;;;20.00;99.90;;;;;;5071056;28;20093;-84
2022/08/15 04:57:37;;;;;;;2.25;0.80;;;20.00;99.90;;;;;;5070192;28;20041;-84
2022/08/15 05:00:06;;;;;;;2.00;0.90;;;19.90;99.90;;;;;;5074140;28;20024;-86
2022/08/15 05:02:32;;;;;;;1.73;0.75;;;19.90;99.90;;;;;;5069001;28;20171;-84
2022/08/15 05:04:59;;;;;;;1.77;0.70;;;19.90;99.90;;;;;;5073547;28;20031;-85
2022/08/15 05:07:24;;;;;;;4.25;0.88;;;19.80;99.90;;;;;;5075077;28;20058;-86
2022/08/15 05:09:50;;;;;;;3.22;0.70;;;19.90;99.90;;;;;;5074679;28;20017;-84
2022/08/15 05:12:15;;;;;;;4.32;0.75;;;19.90;99.90;;;;;;5077283;28;20539;-84
2022/08/15 05:14:41;;;;;;;1.27;0.52;;;19.90;99.90;;;;;;5060132;28;20028;-85
2022/08/15 05:17:07;;;;;;;1.90;0.70;;;20.00;99.90;;;;;;5058421;28;20071;-84
2022/08/15 05:19:32;;;;;;;2.05;0.70;;;20.00;99.90;;;;;;5074747;28;20032;-84
2022/08/15 05:21:58;;;;;;;1.27;0.40;;;20.00;99.90;;;;;;5072083;28;20068;-83
2022/08/15 05:24:24;;;;;;;3.08;1.02;;;20.00;99.90;;;;;;5072370;28;20028;-84
2022/08/15 05:26:50;;;;;;;2.08;0.60;;;20.00;99.90;;;;;;5069314;28;20032;-83
2022/08/15 05:29:15;;;;;;;1.20;0.40;;;20.00;99.90;;;;;;5055946;28;20122;-85
2022/08/15 05:31:41;;;;;;;3.40;0.75;;;19.90;99.90;;;;;;5054608;28;20016;-83
2022/08/15 05:34:07;;;;;;;1.15;0.52;;;20.00;99.90;;;;;;5071730;28;20020;-85
2022/08/15 05:36:34;;;;;;;1.98;0.60;;;19.90;99.90;;;;;;5046148;28;20068;-86
2022/08/15 05:39:18;;;;;;;0.98;0.47;;;19.90;99.90;;;;;;5059799;28;20045;-84
2022/08/15 05:42:01;;;;;;;1.15;0.45;;;19.80;99.90;;;;;;5054841;28;20035;-84
2022/08/15 05:44:32;;;;;;;1.52;0.60;;;19.70;99.90;;;;;;5076442;28;20028;-83
2022/08/15 05:47:10;;;;;;;1.17;0.50;;;19.80;99.90;;;;;;5074550;28;20055;-83
2022/08/15 05:49:56;;;;;;;1.23;0.70;;;19.80;99.90;;;;;;5073625;28;20025;-83
2022/08/15 05:52:40;;;;;;;1.42;0.50;;;19.80;99.90;;;;;;5072253;28;20033;-83
2022/08/15 05:55:17;;;;;;;1.38;0.60;;;19.80;99.90;;;;;;5073220;28;20029;-83
2022/08/15 05:58:20;;;;;;;1.83;0.55;;;19.80;99.90;;;;;;5073791;28;20051;-83
2022/08/15 06:01:13;;;;;;;1.17;0.43;;;19.80;99.90;;;;;;5072900;28;20016;-83
2022/08/15 06:03:43;;;;;;;1.75;0.60;;;19.90;99.90;;;;;;5078076;28;20075;-83
2022/08/15 06:06:18;;;;;;;1.50;0.70;;;19.90;99.90;;;;;;5076544;28;20032;-82
2022/08/15 06:08:50;;;;;;;1.58;0.60;;;19.90;99.90;;;;;;5061528;28;20032;-83
2022/08/15 06:11:26;;;;;;;1.20;0.57;;;20.00;99.90;;;;;;5061398;28;20028;-85
2022/08/15 06:14:03;;;;;;;0.95;0.50;;;20.00;99.90;;;;;;5059548;28;20025;-84
2022/08/15 06:16:45;;;;;;;1.13;0.45;;;20.00;99.90;;;;;;5075920;28;20032;-85
2022/08/15 06:19:20;;;;;;;0.90;0.50;;;20.00;99.90;;;;;;5054232;28;20036;-85
2022/08/15 06:22:02;;;;;;;2.45;0.60;;;20.00;99.90;;;;;;5057695;28;20043;-84
2022/08/15 06:24:42;;;;;;;1.20;0.50;;;19.90;99.90;;;;;;5057418;28;20028;-85
2022/08/15 06:27:27;;;;;;;0.98;0.43;;;19.90;99.90;;;;;;5058191;28;20167;-84
2022/08/15 06:30:19;;;;;;;1.23;0.63;;;20.00;99.90;;;;;;5072896;28;20460;-84
2022/08/15 06:33:20;;;;;;;2.58;0.43;;;19.90;99.90;;;;;;5054153;28;20031;-85
2022/08/15 06:36:06;;;;;;;1.40;0.52;;;19.90;99.90;;;;;;5056874;28;20318;-84
2022/08/15 06:38:42;;;;;;;0.90;0.60;;;20.00;99.90;;;;;;5052126;28;20070;-84
2022/08/15 06:41:25;;;;;;;2.08;0.80;;;20.00;99.90;;;;;;5075239;28;20028;-84
2022/08/15 06:43:51;;;;;;;1.30;0.50;;;20.10;99.90;;;;;;5054145;28;20020;-83
2022/08/15 06:46:16;;;;;;;2.17;0.55;;;20.20;99.90;;;;;;5074238;28;20135;-84
2022/08/15 06:48:43;;;;;;;2.35;0.60;;;20.20;99.90;;;;;;5075256;28;20064;-84
2022/08/15 06:51:11;;;;;;;1.00;0.40;;;20.30;99.90;;;;;;5057896;28;20054;-85
2022/08/15 06:53:44;;;;;;;1.95;0.57;;;20.30;99.90;;;;;;5071005;28;20028;-85
2022/08/15 06:56:24;;;;;;;1.38;0.50;;;20.40;99.90;;;;;;5053714;28;20024;-84
2022/08/15 06:59:27;;;;;;;1.00;0.50;;;20.50;99.90;;;;;;5054583;28;20098;-85
2022/08/15 07:01:58;;;;;;;1.30;0.60;;;20.60;99.90;;;;;;5071902;28;20107;-85
2022/08/15 07:04:46;;;;;;;0.70;0.40;;;20.60;99.90;;;;;;5074266;28;20043;-85
2022/08/15 07:07:41;;;;;;;1.27;0.50;;;20.70;99.90;;;;;;5056320;28;20032;-83
2022/08/15 07:10:25;;;;;;;2.38;0.88;;;20.80;99.90;;;;;;5053715;28;20032;-83
2022/08/15 07:13:02;;;;;;;1.48;0.40;;;20.70;99.90;;;;;;5059676;28;20115;-84
2022/08/15 07:15:49;;;;;;;3.10;0.52;;;21.00;99.90;;;;;;5059818;28;20025;-83
2022/08/15 07:18:44;;;;;;;2.88;0.70;;;21.20;99.90;;;;;;5076755;28;20103;-85
2022/08/15 07:21:17;;;;;;;0.57;0.35;;;21.50;99.90;;;;;;5072743;28;20033;-84
2022/08/15 07:24:08;;;;;;;1.20;0.50;;;21.70;99.90;;;;;;5072338;28;20033;-84
2022/08/15 07:26:45;;;;;;;;;;;22.10;99.90;;;;;;5068626;28;20115;-84
2022/08/15 07:29:31;;;;;;;1.25;0.45;;;22.40;99.90;;;;;;5073599;28;19916;-84
2022/08/15 07:32:21;;;;;;;1.80;0.50;;;22.70;99.90;;;;;;5056092;28;20388;-85
2022/08/15 07:35:06;;;;;;;0.85;0.40;;;23.00;98.70;;;;;;5073398;28;20053;-84
2022/08/15 07:37:36;;;;;;;2.90;0.80;;;23.00;98.20;;;;;;5071437;28;20115;-84
2022/08/15 07:40:29;;;;;;;0.95;0.40;;;23.00;98.00;;;;;;5055144;28;20141;-84
2022/08/15 07:42:56;;;;;;;1.60;0.63;;;22.80;98.10;;;;;;5058783;28;20115;-84
2022/08/15 07:45:38;;;;;;;1.00;0.40;;;22.80;98.20;;;;;;5054351;28;20025;-84
2022/08/15 07:48:24;;;;;;;1.25;0.45;;;22.70;98.00;;;;;;5075283;28;20024;-84
2022/08/15 07:51:14;;;;;;;2.05;0.65;;;22.50;98.00;;;;;;5074007;28;20032;-84
2022/08/15 07:54:03;;;;;;;1.60;0.52;;;22.70;98.50;;;;;;5068650;28;20025;-85
2022/08/15 07:56:31;;;;;;;2.50;0.40;;;22.90;97.80;;;;;;5052587;28;20071;-83
2022/08/15 07:59:21;;;;;;;1.42;0.50;;;23.10;97.20;;;;;;5070927;28;20059;-84
2022/08/15 08:01:53;;;;;;;1.75;0.55;;;23.20;96.40;;;;;;5060965;28;20024;-83
2022/08/15 08:04:27;;;;;;;0.90;0.32;;;23.30;96.80;;;;;;5076629;28;20477;-83
2022/08/15 08:07:04;;;;;;;3.20;0.50;;;23.40;96.00;;;;;;5078587;28;20028;-84
2022/08/15 08:09:54;;;;;;;1.00;0.30;;;23.50;96.00;;;;;;5061626;28;20047;-84
2022/08/15 08:12:33;;;;;;;0.85;0.30;;;23.20;95.90;;;;;;5072274;28;20492;-82
2022/08/15 08:15:19;;;;;;;1.15;0.35;;;23.00;95.90;;;;;;5073453;28;20504;-83
2022/08/15 08:17:50;;;;;;;1.17;0.40;;;23.10;96.10;;;;;;5077737;28;20612;-84
2022/08/15 08:20:21;;;;;;;;;;;23.10;95.70;;;;;;5058186;28;20047;-83
2022/08/15 08:23:14;;;;;;;2.45;0.55;;;23.30;95.60;;;;;;5071354;28;19917;-84
2022/08/15 08:26:06;;;;;;;3.05;0.50;;;23.60;95.30;;;;;;5074487;28;20089;-84
2022/08/15 08:28:44;;;;;;;0.63;0.30;;;23.80;94.80;;;;;;5049419;28;20029;-84
2022/08/15 08:31:22;;;;;;;1.15;0.38;;;24.30;94.00;;;;;;5052958;28;20033;-84
2022/08/15 08:34:02;;;;;;;1.10;0.50;;;24.10;94.00;;;;;;5060513;28;20025;-84
2022/08/15 08:36:34;;;;;;;0.80;0.40;;;24.10;93.50;;;;;;5057408;28;20038;-84
2022/08/15 08:39:24;;;;;;;0.77;0.40;;;24.10;93.00;;;;;;5075573;28;20029;-84
2022/08/15 08:42:05;;;;;;;0.95;0.30;;;24.50;92.90;;;;;;5077140;28;20035;-83
2022/08/15 08:44:50;;;;;;;0.10;0.10;;;24.70;92.70;;;;;;5075689;28;20080;-84
2022/08/15 08:47:32;;;;;;;1.50;0.30;;;24.80;91.90;;;;;;5057327;28;20492;-81
2022/08/15 08:50:04;;;;;;;0.68;0.30;;;24.80;91.90;;;;;;5077114;28;20059;-82
2022/08/15 08:52:54;;;;;;;0.43;0.30;;;25.00;91.60;;;;;;5061132;28;20148;-83
2022/08/15 08:55:28;;;;;;;1.02;0.30;;;25.20;91.40;;;;;;5071857;28;20021;-83
2022/08/15 08:58:05;;;;;;;1.02;0.40;;;25.30;90.90;;;;;;5052075;28;20020;-82
2022/08/15 09:00:41;;;;;;;1.50;0.40;;;25.50;90.50;;;;;;5071330;28;20028;-83
2022/08/15 09:03:14;;;;;;;0.47;0.20;;;25.50;90.10;;;;;;5059693;28;20454;-83
2022/08/15 09:05:44;;;;;;;0.30;0.20;;;25.90;89.70;;;;;;5067184;28;20083;-83
2022/08/15 09:08:21;;;;;;;2.00;0.65;;;25.70;90.00;;;;;;5067616;28;20021;-82
2022/08/15 09:10:49;;;;;;;1.38;0.70;;;25.70;88.80;;;;;;5070919;28;20080;-82
2022/08/15 09:13:34;;;;;;;0.60;0.30;;;25.40;89.60;;;;;;5067079;28;20025;-82
2022/08/15 09:16:23;;;;;;;1.23;0.40;;;25.50;89.30;;;;;;5072599;28;20048;-82
2022/08/15 09:18:59;;;;;;;2.03;0.40;;;25.10;88.80;;;;;;5063534;28;20080;-82
2022/08/15 09:21:25;;;;;;;1.48;0.22;;;25.20;88.00;;;;;;5057055;28;20088;-82
2022/08/15 09:23:50;;;;;;;0.85;0.30;;;25.50;87.20;;;;;;5088945;23;20138;-78
2022/08/15 09:26:27;;;;;;;0.60;0.25;;;25.70;86.70;;;;;;5095393;28;20032;-79
2022/08/15 09:29:03;;;;;;;0.93;0.47;;;25.90;85.90;;;;;;5070955;28;20028;-78
2022/08/15 09:31:32;;;;;;;0.88;0.30;;;26.10;86.00;;;;;;5080331;28;20082;-79
2022/08/15 09:34:05;;;;;;;1.30;0.40;;;26.30;84.80;;;;;;5096483;28;20020;-78
2022/08/15 09:36:42;;;;;;;2.67;0.30;;;26.50;83.70;;;;;;5085061;28;20047;-78
2022/08/15 09:39:23;;;;;;;0.57;0.30;;;26.70;83.60;;;;;;5091042;28;20027;-78
2022/08/15 09:42:14;;;;;;;0.40;0.20;;;26.50;83.00;;;;;;5075521;28;20020;-79
2022/08/15 09:44:53;;;;;;;0.40;0.20;;;26.30;83.80;;;;;;5095451;28;20042;-79
2022/08/15 09:47:43;;;;;;;0.60;0.20;;;26.60;84.10;;;;;;5074676;28;20046;-78
2022/08/15 09:50:36;;;;;;;1.30;0.43;;;26.80;84.20;;;;;;5094249;28;20092;-79
2022/08/15 09:53:18;;;;;;;1.25;0.32;;;26.70;82.30;;;;;;5091000;28;20012;-78
2022/08/15 09:55:48;;;;;;;0.40;0.20;;;26.60;82.90;;;;;;5096371;28;20045;-79
2022/08/15 09:58:31;;;;;;;1.25;0.30;;;26.70;81.30;;;;;;5086155;28;20033;-78
2022/08/15 10:01:12;;;;;;;0.63;0.30;;;26.70;81.50;;;;;;5070812;28;20020;-78
2022/08/15 10:03:43;;;;;;;0.47;0.30;;;27.00;80.70;;;;;;5087599;28;20028;-77
2022/08/15 10:06:20;;;;;;;1.05;0.20;;;27.10;80.30;;;;;;5086759;28;20082;-79
2022/08/15 10:08:54;;;;;;;0.68;0.38;;;27.40;78.80;;;;;;5082883;28;20023;-78
2022/08/15 10:11:39;;;;;;;0.47;0.30;;;27.60;78.20;;;;;;5093104;28;20024;-78
2022/08/15 10:14:25;;;;;;;0.60;0.30;;;27.50;78.70;;;;;;5087491;28;20365;-79
2022/08/15 10:16:53;;;;;;;0.65;0.30;;;27.60;77.20;;;;;;5094129;28;20056;-79
2022/08/15 10:19:30;;;;;;;0.40;0.20;;;28.00;77.90;;;;;;5091116;28;20447;-79
2022/08/15 10:21:59;;;;;;;0.63;0.30;;;28.00;76.50;;;;;;5102932;28;20030;-79
2022/08/15 10:24:32;;;;;;;0.35;0.22;;;28.20;77.00;;;;;;5100966;28;20034;-77
2022/08/15 10:27:17;;;;;;;0.57;0.30;;;28.60;76.00;;;;;;5083034;28;20150;-79
2022/08/15 10:29:49;;;;;;;0.95;0.40;;;28.70;75.00;;;;;;5088632;28;20029;-78
2022/08/15 10:32:30;;;;;;;0.60;0.20;;;28.80;73.70;;;;;;5076930;28;20029;-78
2022/08/15 10:35:06;;;;;;;1.17;0.50;;;28.80;73.20;;;;;;5100929;28;20040;-79
2022/08/15 10:37:53;;;;;;;1.52;0.50;;;28.90;72.70;;;;;;5100228;28;20043;-79
2022/08/15 10:40:31;;;;;;;0.75;0.32;;;29.10;72.60;;;;;;5097012;28;20365;-79
2022/08/15 10:43:06;;;;;;;1.00;0.40;;;29.00;72.20;;;;;;5094079;28;20566;-79
2022/08/15 10:45:46;;;;;;;1.55;0.50;;;28.80;73.00;;;;;;5066414;28;20496;-79
2022/08/15 10:48:50;;;;;;;0.93;0.30;;;28.60;74.40;;;;;;5077557;28;20028;-79
2022/08/15 10:51:39;;;;;;;0.90;0.47;;;28.30;72.90;;;;;;5054546;28;20033;-79
2022/08/15 10:54:22;;;;;;;1.35;0.40;;;28.60;73.00;;;;;;5084741;28;20393;-79
2022/08/15 10:56:54;;;;;;;1.30;0.50;;;29.00;72.20;;;;;;5075697;28;20017;-79
2022/08/15 10:59:24;;;;;;;1.30;0.50;;;29.30;71.50;;;;;;5092192;28;20050;-78
2022/08/15 11:01:50;;;;;;;0.55;0.30;;;29.60;71.40;;;;;;5069901;28;20076;-79
2022/08/15 11:04:35;;;;;;;0.52;0.25;;;29.50;71.80;;;;;;5077607;28;20091;-79
2022/08/15 11:07:03;;;;;;;0.77;0.40;;;29.60;71.40;;;;;;5074171;28;20016;-79
2022/08/15 11:09:28;;;;;;;0.93;0.40;;;29.30;71.30;;;;;;5071909;28;20426;-79
2022/08/15 11:11:57;;;;;;;1.00;0.38;;;28.90;70.80;;;;;;5093561;28;20078;-79
2022/08/15 11:14:34;;;;;;;0.90;0.40;;;28.60;70.90;;;;;;5091442;28;20093;-79
2022/08/15 11:17:00;;;;;;;1.08;0.32;;;28.20;72.40;;;;;;5065644;28;20013;-77
2022/08/15 11:19:32;;;;;;;0.73;0.30;;;28.40;71.60;;;;;;5068522;28;20047;-79
2022/08/15 11:22:04;;;;;;;1.55;0.30;;;28.30;71.40;;;;;;5087198;28;20027;-79
2022/08/15 11:24:39;;;;;;;1.25;0.40;;;28.20;72.20;;;;;;5077161;28;20445;-79
2022/08/15 11:27:25;;;;;;;0.70;0.40;;;28.10;71.50;;;;;;5095841;28;20031;-81
2022/08/15 11:29:58;;;;;;;1.48;0.47;;;28.10;70.90;;;;;;5080868;28;20039;-81
2022/08/15 11:32:34;;;;;;;0.82;0.38;;;27.90;71.30;;;;;;5097941;28;20028;-81
2022/08/15 11:35:03;;;;;;;1.00;0.40;;;28.00;70.30;;;;;;5091060;28;20377;-81
2022/08/15 11:37:37;;;;;;;1.63;0.32;;;28.00;70.90;;;;;;5093277;28;20029;-81
2022/08/15 11:40:26;;;;;;;1.45;0.38;;;27.90;70.90;;;;;;5094387;28;20038;-81
2022/08/15 11:42:53;;;;;;;1.45;0.40;;;28.00;70.40;;;;;;5094720;28;20078;-81
2022/08/15 11:45:26;;;;;;;1.13;0.40;;;28.00;70.60;;;;;;5078809;28;20213;-81
2022/08/15 11:47:55;;;;;;;0.80;0.30;;;28.00;72.10;;;;;;5080617;28;20031;-81
2022/08/15 11:50:27;;;;;;;0.73;0.30;;;28.60;72.90;;;;;;5097956;28;20058;-81
2022/08/15 11:52:57;;;;;;;0.70;0.30;;;28.90;69.20;;;;;;5093897;28;20413;-81
2022/08/15 11:55:49;;;;;;;1.27;0.30;;;28.80;70.90;;;;;;5080226;28;20114;-82
2022/08/15 11:58:14;;;;;;;0.65;0.40;;;29.00;71.20;;;;;;5093053;28;20029;-81
2022/08/15 12:00:50;;;;;;;0.57;0.30;;;29.80;70.00;;;;;;5095581;28;20031;-81
2022/08/15 12:03:34;;;;;;;0.70;0.30;;;29.70;69.30;;;;;;5077622;28;20484;-81
2022/08/15 12:06:12;;;;;;;0.45;0.30;;;29.40;70.10;;;;;;5095533;28;20043;-82
2022/08/15 12:08:39;;;;;;;0.60;0.30;;;29.30;69.30;;;;;;5076655;28;20035;-82
2022/08/15 12:11:14;;;;;;;1.88;0.60;;;29.70;71.50;;;;;;5091802;28;20016;-82
2022/08/15 12:14:00;;;;;;;1.45;0.40;;;29.70;71.30;;;;;;5070468;28;20028;-83
2022/08/15 12:16:31;;;;;;;1.23;0.50;;;30.00;70.70;;;;;;5099276;28;20025;-82
2022/08/15 12:19:17;;;;;;;1.80;0.43;;;30.00;69.40;;;;;;5079290;28;20039;-82
2022/08/15 12:21:47;;;;;;;0.85;0.38;;;30.10;69.90;;;;;;5077049;28;20032;-82
2022/08/15 12:24:24;;;;;;;1.77;0.47;;;30.50;70.20;;;;;;5079049;28;20042;-83
2022/08/15 12:26:51;;;;;;;0.75;0.40;;;31.10;68.90;;;;;;5072976;28;20034;-81
2022/08/15 12:29:21;;;;;;;0.95;0.40;;;31.40;69.50;;;;;;5078865;28;20097;-82
2022/08/15 12:31:48;;;;;;;1.07;0.40;;;31.10;68.50;;;;;;5092896;28;20016;-81
2022/08/15 12:34:32;;;;;;;0.75;0.35;;;30.50;67.80;;;;;;5078736;28;20331;-82
2022/08/15 12:37:01;;;;;;;0.85;0.40;;;30.20;68.10;;;;;;5092672;28;20031;-82
2022/08/15 12:39:27;;;;;;;0.60;0.30;;;29.50;68.10;;;;;;5097801;28;20024;-82
2022/08/15 12:41:54;;;;;;;1.27;0.50;;;29.10;69.40;;;;;;5078686;28;20189;-82
2022/08/15 12:44:27;;;;;;;1.55;0.45;;;29.10;70.70;;;;;;5097865;28;20483;-82
2022/08/15 12:46:55;;;;;;;0.60;0.30;;;29.60;70.60;;;;;;5075285;28;20020;-83
2022/08/15 12:49:21;;;;;;;1.38;0.50;;;30.30;68.70;;;;;;5097940;28;20077;-83
2022/08/15 12:51:46;;;;;;;2.25;0.60;;;30.70;68.20;;;;;;5093999;28;20092;-82
2022/08/15 12:54:12;;;;;;;0.80;0.32;;;30.60;67.50;;;;;;5090720;28;20044;-81
2022/08/15 12:56:39;;;;;;;1.00;0.40;;;30.20;68.00;;;;;;5092702;28;20016;-81
2022/08/15 12:59:05;;;;;;;1.35;0.57;;;29.70;67.80;;;;;;5072582;28;20071;-82
2022/08/15 13:01:35;;;;;;;0.90;0.40;;;29.50;68.70;;;;;;5095992;28;20032;-83
2022/08/15 13:04:04;;;;;;;1.45;0.50;;;29.10;69.30;;;;;;5076264;28;20028;-82
2022/08/15 13:06:42;;;;;;;0.80;0.40;;;29.00;68.70;;;;;;5090435;28;20035;-82
2022/08/15 13:09:09;;;;;;;0.90;0.50;;;28.80;70.60;;;;;;5076206;28;20036;-82
2022/08/15 13:11:39;;;;;;;0.98;0.40;;;28.80;70.70;;;;;;5088047;28;20024;-82
2022/08/15 13:14:05;;;;;;;1.75;0.60;;;29.00;70.30;;;;;;5074978;28;20024;-82
2022/08/15 13:16:33;;;;;;;1.85;0.60;;;29.00;70.00;;;;;;5092974;28;20065;-81
2022/08/15 13:19:05;;;;;;;1.67;0.50;;;29.10;70.10;;;;;;5078482;28;20073;-81
2022/08/15 13:24:16;;;;;;;2.13;0.57;;;29.80;70.10;;;;;;5090914;28;20093;-82